Time;durP1;ratioP1;P1;durP2;ratioP2;P2;SDS_P1;SDS_P2;PMS_P1;PMS_P2;Temp;Humidity;BMP_temperature;BMP_pressure;BME280_temperature;BME280_humidity;BME280_pressure;Samples;Min_cycle;Max_cycle;Signal;HPM_P1;HPM_P2
2022/11/17 00:00:19;;;;;;;24.15;19.52;;;8.10;99.90;;;;;;5104259;28;20410;-75
2022/11/17 00:02:46;;;;;;;25.15;19.60;;;8.00;99.90;;;;;;5124466;27;20498;-75
2022/11/17 00:05:12;;;;;;;26.90;20.70;;;8.00;99.90;;;;;;5121979;27;20477;-75
2022/11/17 00:07:37;;;;;;;24.55;20.25;;;7.90;99.90;;;;;;5113098;27;20427;-74
2022/11/17 00:10:03;;;;;;;21.60;17.60;;;7.90;99.90;;;;;;5113982;27;20406;-74
2022/11/17 00:15:13;;;;;;;17.33;12.85;;;7.90;99.90;;;;;;5102569;28;20913;-75
2022/11/17 00:17:39;;;;;;;16.13;11.40;;;7.90;99.90;;;;;;5130971;27;20419;-74
2022/11/17 00:22:49;;;;;;;17.88;12.85;;;7.90;99.90;;;;;;5097375;27;20907;-73
2022/11/17 00:25:14;;;;;;;15.35;11.70;;;7.80;99.90;;;;;;5131635;27;20477;-73
2022/11/17 00:27:40;;;;;;;15.90;12.57;;;7.80;99.90;;;;;;5128198;27;20776;-72
2022/11/17 00:30:06;;;;;;;18.90;14.82;;;7.80;99.90;;;;;;5130727;27;20429;-72
2022/11/17 00:35:16;;;;;;;17.75;14.20;;;7.80;99.90;;;;;;5127688;27;20406;-72
2022/11/17 00:38:14;;;;;;;14.43;11.90;;;7.80;99.90;;;;;;5131088;27;20426;-72
2022/11/17 00:40:27;;;;;;;12.38;8.73;;;7.80;99.90;;;;;;5124378;27;20416;-72
2022/11/17 00:42:53;;;;;;;14.07;9.98;;;7.70;99.90;;;;;;5105530;27;20409;-72
2022/11/17 00:45:18;;;;;;;15.97;12.30;;;7.70;99.90;;;;;;5131077;27;20403;-72
2022/11/17 00:47:44;;;;;;;13.88;9.70;;;7.70;99.90;;;;;;5120748;27;20403;-72
2022/11/17 00:50:10;;;;;;;13.33;9.87;;;7.70;99.90;;;;;;5124470;27;20396;-72
2022/11/17 00:52:35;;;;;;;12.40;9.55;;;7.70;99.90;;;;;;5128098;27;20464;-72
2022/11/17 00:55:01;;;;;;;12.60;10.03;;;7.70;99.90;;;;;;5109068;28;20404;-72
2022/11/17 00:57:27;;;;;;;12.40;9.38;;;7.60;99.90;;;;;;5123376;27;20430;-72
2022/11/17 00:59:52;;;;;;;13.50;9.27;;;7.70;99.90;;;;;;5121091;27;20394;-72
2022/11/17 01:02:18;;;;;;;19.50;16.03;;;7.60;99.90;;;;;;5112595;27;20395;-72
2022/11/17 01:04:43;;;;;;;17.58;13.48;;;7.60;99.90;;;;;;5108951;28;20965;-72
2022/11/17 01:07:09;;;;;;;13.00;10.47;;;7.60;99.90;;;;;;5122399;27;20406;-72
2022/11/17 01:09:34;;;;;;;13.85;11.35;;;7.60;99.90;;;;;;5094623;28;20886;-72
2022/11/17 01:12:00;;;;;;;14.43;11.10;;;7.60;99.90;;;;;;5122513;27;20397;-72
2022/11/17 01:14:28;;;;;;;13.00;10.90;;;7.60;99.90;;;;;;5117164;27;20445;-72
2022/11/17 01:16:54;;;;;;;14.30;10.15;;;7.60;99.90;;;;;;5130628;27;20430;-72
2022/11/17 01:19:21;;;;;;;13.30;8.73;;;7.60;99.90;;;;;;5111061;27;20442;-72
2022/11/17 01:21:47;;;;;;;10.88;8.23;;;7.50;99.90;;;;;;5091644;28;20447;-72
2022/11/17 01:24:15;;;;;;;11.33;8.33;;;7.60;99.90;;;;;;5110610;27;20427;-73
2022/11/17 01:26:41;;;;;;;12.35;8.77;;;7.50;99.90;;;;;;5118089;27;20419;-72
2022/11/17 01:29:09;;;;;;;13.13;10.60;;;7.50;99.90;;;;;;5109884;27;20571;-72
2022/11/17 01:31:38;;;;;;;12.85;10.63;;;7.50;99.90;;;;;;5121192;27;20398;-72
2022/11/17 01:34:04;;;;;;;13.30;10.13;;;7.50;99.90;;;;;;5130312;27;20395;-73
2022/11/17 01:39:19;;;;;;;12.35;9.52;;;7.50;99.90;;;;;;5108636;28;20434;-72
2022/11/17 01:41:45;;;;;;;11.55;8.25;;;7.50;99.90;;;;;;5111897;27;20399;-72
2022/11/17 01:44:53;;;;;;;11.60;8.02;;;7.50;99.90;;;;;;5108282;28;20447;-72
2022/11/17 01:47:36;;;;;;;10.55;7.80;;;7.50;99.90;;;;;;5090640;27;20503;-72
2022/11/17 01:50:20;;;;;;;10.70;8.50;;;7.50;99.90;;;;;;5130072;27;20407;-72
2022/11/17 01:52:49;;;;;;;14.38;10.80;;;7.50;99.90;;;;;;5129834;27;20415;-72
2022/11/17 01:55:16;;;;;;;17.02;14.57;;;7.50;99.90;;;;;;5110801;27;20399;-75
2022/11/17 01:57:57;;;;;;;16.70;12.68;;;7.50;99.90;;;;;;5129727;27;20418;-72
2022/11/17 02:00:23;;;;;;;18.02;15.00;;;7.50;99.90;;;;;;5090813;28;20750;-72
2022/11/17 02:02:50;;;;;;;15.90;13.90;;;7.60;99.90;;;;;;5093151;27;20399;-72
2022/11/17 02:05:30;;;;;;;16.33;11.98;;;7.50;99.90;;;;;;5119813;27;20911;-73
2022/11/17 02:07:59;;;;;;;13.88;10.38;;;7.50;99.90;;;;;;5116877;27;20412;-73
2022/11/17 02:10:29;;;;;;;14.40;10.33;;;7.60;99.90;;;;;;5121876;27;20399;-73
2022/11/17 02:12:55;;;;;;;14.15;11.23;;;7.60;99.90;;;;;;5129226;27;20485;-72
2022/11/17 02:15:21;;;;;;;18.88;14.93;;;7.60;99.90;;;;;;5129976;27;20399;-73
2022/11/17 02:17:49;;;;;;;20.48;17.67;;;7.60;99.90;;;;;;5111062;27;20426;-73
2022/11/17 02:20:40;;;;;;;19.48;15.15;;;7.50;99.90;;;;;;5128102;27;20394;-72
2022/11/17 02:23:30;;;;;;;17.65;13.75;;;7.60;99.90;;;;;;5126031;27;20784;-73
2022/11/17 02:26:02;;;;;;;14.70;11.73;;;7.60;99.90;;;;;;5107167;28;20408;-72
2022/11/17 02:28:31;;;;;;;15.18;11.77;;;7.60;99.90;;;;;;5080494;28;20417;-72
2022/11/17 02:31:18;;;;;;;16.02;12.30;;;7.60;99.90;;;;;;5129540;27;20407;-72
2022/11/17 02:33:50;;;;;;;14.60;10.20;;;7.60;99.90;;;;;;5107177;28;20491;-72
2022/11/17 02:36:35;;;;;;;14.00;10.10;;;7.60;99.90;;;;;;5123779;27;20448;-73
2022/11/17 02:39:47;;;;;;;13.18;10.48;;;7.60;99.90;;;;;;5110023;27;20438;-73
2022/11/17 02:45:55;;;;;;;14.23;10.25;;;7.60;99.90;;;;;;5063043;28;20413;-73
2022/11/17 02:48:37;;;;;;;15.23;10.68;;;7.60;99.90;;;;;;5109257;28;20403;-73
2022/11/17 02:51:05;;;;;;;14.77;10.25;;;7.60;99.90;;;;;;5129251;28;20398;-73
2022/11/17 02:53:32;;;;;;;15.45;12.38;;;7.60;99.90;;;;;;5129375;28;20477;-73
2022/11/17 02:56:00;;;;;;;13.13;11.27;;;7.60;99.90;;;;;;5128976;28;20899;-72
2022/11/17 02:58:25;;;;;;;13.77;11.82;;;7.60;99.90;;;;;;5128485;28;20430;-72
2022/11/17 03:01:12;;;;;;;15.77;13.03;;;7.60;99.90;;;;;;5127809;28;20398;-72
2022/11/17 03:03:50;;;;;;;16.33;13.23;;;7.60;99.90;;;;;;5101349;28;20411;-73
2022/11/17 03:06:28;;;;;;;15.05;12.43;;;7.60;99.90;;;;;;5128766;28;20410;-73
2022/11/17 03:09:17;;;;;;;12.57;9.82;;;7.60;99.90;;;;;;5109853;28;20418;-73
2022/11/17 03:11:52;;;;;;;10.50;8.43;;;7.60;99.90;;;;;;5128645;28;20399;-73
2022/11/17 03:14:32;;;;;;;9.98;8.65;;;7.60;99.90;;;;;;5127929;28;20395;-72
2022/11/17 03:17:18;;;;;;;13.50;9.07;;;7.60;99.90;;;;;;5116356;28;20441;-73
2022/11/17 03:19:52;;;;;;;11.80;9.17;;;7.50;99.90;;;;;;5097158;28;20415;-73
2022/11/17 03:22:26;;;;;;;11.65;10.10;;;7.50;99.90;;;;;;5125927;28;20472;-73
2022/11/17 03:25:00;;;;;;;11.23;8.77;;;7.50;99.90;;;;;;5108689;28;20401;-73
2022/11/17 03:27:31;;;;;;;10.57;8.85;;;7.50;99.90;;;;;;5108175;28;20400;-73
2022/11/17 03:30:00;;;;;;;11.73;8.88;;;7.50;99.90;;;;;;5108055;28;20413;-72
2022/11/17 03:32:31;;;;;;;10.88;8.65;;;7.50;99.90;;;;;;5119697;28;20392;-73
2022/11/17 03:35:02;;;;;;;9.80;8.55;;;7.50;99.90;;;;;;5117931;28;20457;-73
2022/11/17 03:37:33;;;;;;;10.57;8.43;;;7.40;99.90;;;;;;5095192;28;20616;-73
2022/11/17 03:40:08;;;;;;;11.05;9.27;;;7.40;99.90;;;;;;5112323;27;20428;-73
2022/11/17 03:42:37;;;;;;;11.40;10.20;;;7.40;99.90;;;;;;5132317;27;20407;-73
2022/11/17 03:45:08;;;;;;;12.85;9.98;;;7.40;99.90;;;;;;5113462;27;20983;-73
2022/11/17 03:47:34;;;;;;;11.57;9.90;;;7.40;99.90;;;;;;5107176;27;20457;-73
2022/11/17 03:50:11;;;;;;;13.43;10.10;;;7.40;99.90;;;;;;5127997;27;20395;-73
2022/11/17 03:52:37;;;;;;;12.37;10.67;;;7.40;99.90;;;;;;5128388;27;20430;-72
2022/11/17 03:55:04;;;;;;;11.38;8.98;;;7.30;99.90;;;;;;5131943;27;20415;-73
2022/11/17 03:57:32;;;;;;;11.55;9.80;;;7.30;99.90;;;;;;5110619;28;20508;-73
2022/11/17 04:00:11;;;;;;;11.65;9.30;;;7.30;99.90;;;;;;5128874;27;20403;-73
2022/11/17 04:02:43;;;;;;;12.57;9.80;;;7.30;99.90;;;;;;5110449;28;20488;-73
2022/11/17 04:05:10;;;;;;;11.03;9.83;;;7.30;99.90;;;;;;5092660;28;20448;-72
2022/11/17 04:07:44;;;;;;;10.75;9.25;;;7.20;99.90;;;;;;5121372;27;20403;-73
2022/11/17 04:10:17;;;;;;;12.25;10.75;;;7.20;99.90;;;;;;5132235;27;20410;-72
2022/11/17 04:16:10;;;;;;;11.82;10.63;;;7.10;99.90;;;;;;5119127;27;20449;-73
2022/11/17 04:18:17;;;;;;;16.55;12.95;;;7.10;99.90;;;;;;5091618;27;20495;-73
2022/11/17 04:20:43;;;;;;;15.73;12.27;;;7.00;99.90;;;;;;5113379;27;20402;-73
2022/11/17 04:23:14;;;;;;;17.25;13.80;;;7.00;99.90;;;;;;5109696;28;20412;-73
2022/11/17 04:28:36;;;;;;;16.25;13.13;;;7.00;99.90;;;;;;5099907;27;20419;-73
2022/11/17 04:31:18;;;;;;;16.87;12.20;;;6.90;99.90;;;;;;5122091;27;20395;-73
2022/11/17 04:34:11;;;;;;;20.00;16.65;;;6.90;99.90;;;;;;5130930;27;20417;-73
2022/11/17 04:36:44;;;;;;;26.40;19.15;;;6.90;99.90;;;;;;5112754;27;20412;-73
2022/11/17 04:39:11;;;;;;;20.02;16.40;;;6.80;99.90;;;;;;5122312;27;20402;-73
2022/11/17 04:41:53;;;;;;;21.43;16.33;;;6.90;99.90;;;;;;5131305;27;20402;-73
2022/11/17 04:44:22;;;;;;;23.27;18.85;;;6.80;99.90;;;;;;5131549;27;20776;-72
2022/11/17 04:46:48;;;;;;;22.73;20.30;;;6.80;99.90;;;;;;5107699;28;20408;-73
2022/11/17 04:49:15;;;;;;;23.98;21.13;;;6.80;99.90;;;;;;5122561;27;20407;-73
2022/11/17 04:51:41;;;;;;;23.33;19.38;;;6.70;99.90;;;;;;5131425;27;20494;-73
2022/11/17 04:54:08;;;;;;;25.67;20.83;;;6.70;99.90;;;;;;5131402;27;20443;-73
2022/11/17 04:56:35;;;;;;;22.30;19.60;;;6.70;99.90;;;;;;5131307;27;20816;-73
2022/11/17 04:59:00;;;;;;;19.92;15.63;;;6.70;99.90;;;;;;5112067;27;20427;-73
2022/11/17 05:01:26;;;;;;;17.63;15.05;;;6.70;99.90;;;;;;5115411;27;20453;-73
2022/11/17 05:03:56;;;;;;;17.67;13.63;;;6.70;99.90;;;;;;5112564;27;20403;-73
2022/11/17 05:06:24;;;;;;;16.57;12.60;;;6.60;99.90;;;;;;5092438;28;20790;-73
2022/11/17 05:08:54;;;;;;;16.70;13.05;;;6.60;99.90;;;;;;5126105;27;20402;-73
2022/11/17 05:14:07;;;;;;;16.77;13.07;;;6.60;99.90;;;;;;5124686;27;20403;-74
2022/11/17 05:19:22;;;;;;;14.25;11.02;;;6.60;99.90;;;;;;5115386;27;20418;-73
2022/11/17 05:21:48;;;;;;;17.48;12.45;;;6.60;99.90;;;;;;5108789;28;20419;-73
2022/11/17 05:24:14;;;;;;;12.85;9.60;;;6.60;99.90;;;;;;5122687;27;20408;-73
2022/11/17 05:26:41;;;;;;;15.25;9.35;;;6.60;99.90;;;;;;5122687;27;21178;-73
2022/11/17 05:29:08;;;;;;;13.93;9.50;;;6.60;99.90;;;;;;5106180;28;20417;-73
2022/11/17 05:31:34;;;;;;;12.90;9.23;;;6.60;99.90;;;;;;5122523;27;20401;-73
2022/11/17 05:34:01;;;;;;;10.93;8.35;;;6.60;99.90;;;;;;5108553;28;20436;-73
2022/11/17 05:36:28;;;;;;;12.38;8.48;;;6.60;99.90;;;;;;5114632;27;20519;-73
2022/11/17 05:38:54;;;;;;;12.70;8.67;;;6.60;99.90;;;;;;5129200;27;20437;-73
2022/11/17 05:41:21;;;;;;;12.98;8.65;;;6.60;99.90;;;;;;5111817;27;20399;-73
2022/11/17 05:43:49;;;;;;;12.73;9.85;;;6.60;99.90;;;;;;5126431;27;20400;-73
2022/11/17 05:46:16;;;;;;;12.68;9.23;;;6.60;99.90;;;;;;5117502;27;20400;-73
2022/11/17 05:48:42;;;;;;;14.43;9.60;;;6.60;99.90;;;;;;5116647;27;21179;-73
2022/11/17 05:51:09;;;;;;;14.80;11.77;;;6.60;99.90;;;;;;5098052;28;21212;-73
2022/11/17 05:53:35;;;;;;;12.88;10.10;;;6.60;99.90;;;;;;5126183;27;20826;-73
2022/11/17 05:56:23;;;;;;;10.95;8.68;;;6.60;99.90;;;;;;5090933;28;20408;-73
2022/11/17 05:58:54;;;;;;;11.15;7.78;;;6.60;99.90;;;;;;5109834;28;20461;-73
2022/11/17 06:01:20;;;;;;;12.63;9.20;;;6.60;99.90;;;;;;5112402;27;20427;-73
2022/11/17 06:03:52;;;;;;;12.48;8.65;;;6.60;99.90;;;;;;5111174;27;20398;-73
2022/11/17 06:06:19;;;;;;;14.10;9.05;;;6.60;99.90;;;;;;5125522;27;20469;-73
2022/11/17 06:08:45;;;;;;;13.85;9.23;;;6.60;99.90;;;;;;5113011;27;20472;-73
2022/11/17 06:11:11;;;;;;;14.90;9.27;;;6.60;99.90;;;;;;5113279;27;20959;-73
2022/11/17 06:13:37;;;;;;;14.53;8.67;;;6.60;99.90;;;;;;5107854;28;20762;-73
2022/11/17 06:16:06;;;;;;;12.60;8.73;;;6.60;99.90;;;;;;5108829;27;20482;-73
2022/11/17 06:18:38;;;;;;;12.90;8.90;;;6.50;99.90;;;;;;5129653;27;20462;-73
2022/11/17 06:21:04;;;;;;;14.13;9.23;;;6.60;99.90;;;;;;5129311;27;20490;-73
2022/11/17 06:23:32;;;;;;;15.88;9.48;;;6.50;99.90;;;;;;5129294;27;20395;-73
2022/11/17 06:26:02;;;;;;;12.20;8.88;;;6.50;99.90;;;;;;5108825;27;20463;-73
2022/11/17 06:28:29;;;;;;;14.00;8.90;;;6.60;99.90;;;;;;5120035;27;20924;-73
2022/11/17 06:30:56;;;;;;;12.90;9.03;;;6.50;99.90;;;;;;5108720;28;20460;-73
2022/11/17 06:33:22;;;;;;;16.50;9.57;;;6.50;99.90;;;;;;5105471;28;20529;-73
2022/11/17 06:35:48;;;;;;;14.40;8.93;;;6.50;99.90;;;;;;5128537;27;20477;-73
2022/11/17 06:38:14;;;;;;;15.85;9.25;;;6.50;99.90;;;;;;5129051;27;20444;-73
2022/11/17 06:40:40;;;;;;;15.32;9.00;;;6.50;99.90;;;;;;5103594;28;20413;-73
2022/11/17 06:43:08;;;;;;;16.83;9.37;;;6.50;99.90;;;;;;5101108;28;20592;-73
2022/11/17 06:45:35;;;;;;;15.70;9.20;;;6.50;99.90;;;;;;5102601;28;20906;-73
2022/11/17 06:48:01;;;;;;;15.77;9.77;;;6.50;99.90;;;;;;5079824;28;20414;-71
2022/11/17 06:50:27;;;;;;;14.70;10.10;;;6.50;99.90;;;;;;5103342;28;20408;-72
2022/11/17 06:52:56;;;;;;;17.58;9.90;;;6.50;99.90;;;;;;5102814;28;20485;-73
2022/11/17 06:55:22;;;;;;;16.88;10.23;;;6.50;99.90;;;;;;5097022;28;20500;-72
2022/11/17 06:57:47;;;;;;;18.60;10.83;;;6.50;99.90;;;;;;5125413;28;20470;-73
2022/11/17 07:00:14;;;;;;;16.25;10.32;;;6.40;99.90;;;;;;5119663;28;20796;-73
2022/11/17 07:02:39;;;;;;;16.15;10.80;;;6.40;99.90;;;;;;5104308;28;20922;-73
2022/11/17 07:05:05;;;;;;;16.30;10.20;;;6.40;99.90;;;;;;5103346;28;20501;-73
2022/11/17 07:07:30;;;;;;;18.40;11.05;;;6.40;99.90;;;;;;5126104;28;20425;-73
2022/11/17 07:09:56;;;;;;;20.20;11.90;;;6.40;99.90;;;;;;5128106;28;20418;-73
2022/11/17 07:12:22;;;;;;;17.48;10.63;;;6.40;99.90;;;;;;5124276;27;20417;-73
2022/11/17 07:14:47;;;;;;;19.10;11.03;;;6.40;99.90;;;;;;5128624;27;20417;-73
2022/11/17 07:17:13;;;;;;;15.90;9.88;;;6.40;99.90;;;;;;5125905;27;20912;-73
2022/11/17 07:19:38;;;;;;;16.60;9.83;;;6.30;99.90;;;;;;5111488;28;20397;-73
2022/11/17 07:22:04;;;;;;;20.77;10.88;;;6.30;99.90;;;;;;5094903;27;20507;-73
2022/11/17 07:24:29;;;;;;;14.90;9.47;;;6.30;99.90;;;;;;5132185;27;20402;-73
2022/11/17 07:26:55;;;;;;;16.58;9.70;;;6.30;99.90;;;;;;5109346;28;20433;-73
2022/11/17 07:29:21;;;;;;;13.93;9.27;;;6.30;99.90;;;;;;5125149;27;20422;-73
2022/11/17 07:31:46;;;;;;;14.80;8.68;;;6.30;99.90;;;;;;5131568;27;20472;-73
2022/11/17 07:34:12;;;;;;;15.47;9.40;;;6.20;99.90;;;;;;5119004;27;20410;-73
2022/11/17 07:36:37;;;;;;;15.90;9.55;;;6.20;99.90;;;;;;5110784;27;20411;-73
2022/11/17 07:39:04;;;;;;;14.97;9.53;;;6.20;99.90;;;;;;5130315;27;20759;-73
2022/11/17 07:41:30;;;;;;;15.43;10.53;;;6.20;99.90;;;;;;5124696;27;20408;-73
2022/11/17 07:43:57;;;;;;;16.60;12.00;;;6.20;99.90;;;;;;5117225;27;20411;-73
2022/11/17 07:46:23;;;;;;;15.75;9.70;;;6.20;99.90;;;;;;5108050;27;20401;-73
2022/11/17 07:48:53;;;;;;;14.90;10.40;;;6.20;99.90;;;;;;5095394;27;20407;-73
2022/11/17 07:51:21;;;;;;;14.52;10.18;;;6.10;99.90;;;;;;5122114;27;20412;-73
2022/11/17 07:53:46;;;;;;;15.30;10.37;;;6.10;99.90;;;;;;5112292;27;20406;-73
2022/11/17 07:56:12;;;;;;;11.98;9.32;;;6.20;99.90;;;;;;5110557;27;20491;-73
2022/11/17 07:58:39;;;;;;;15.52;10.60;;;6.20;99.90;;;;;;5129400;27;21233;-73
2022/11/17 08:01:16;;;;;;;15.30;10.27;;;6.20;99.90;;;;;;5109879;27;20492;-73
2022/11/17 08:03:42;;;;;;;12.35;8.77;;;6.20;99.90;;;;;;5104459;28;20421;-73
2022/11/17 08:06:08;;;;;;;11.65;8.40;;;6.20;99.90;;;;;;5080806;28;20404;-73
2022/11/17 08:08:35;;;;;;;12.63;8.77;;;6.20;99.90;;;;;;5102884;28;20420;-73
2022/11/17 08:11:03;;;;;;;12.60;8.80;;;6.20;99.90;;;;;;5106908;27;20466;-73
2022/11/17 08:13:29;;;;;;;12.80;8.95;;;6.20;99.90;;;;;;5128809;27;20965;-73
2022/11/17 08:15:56;;;;;;;13.50;10.37;;;6.20;99.90;;;;;;5126058;27;20454;-73
2022/11/17 08:18:21;;;;;;;12.40;9.80;;;6.20;99.90;;;;;;5123805;27;20522;-73
2022/11/17 08:20:47;;;;;;;12.70;8.80;;;6.20;99.90;;;;;;5109214;27;20499;-73
2022/11/17 08:23:13;;;;;;;11.77;9.07;;;6.20;99.90;;;;;;5110230;27;20419;-73
2022/11/17 08:25:38;;;;;;;11.40;8.77;;;6.20;99.90;;;;;;5098971;27;20407;-73
2022/11/17 08:28:04;;;;;;;13.25;9.50;;;6.20;99.90;;;;;;5109290;27;20866;-73
2022/11/17 08:30:33;;;;;;;11.10;8.00;;;6.20;99.90;;;;;;5109956;27;20416;-73
2022/11/17 08:32:59;;;;;;;9.63;7.55;;;6.20;99.90;;;;;;5111821;27;20471;-73
2022/11/17 08:35:25;;;;;;;10.38;7.45;;;6.20;99.90;;;;;;5128479;27;20424;-73
2022/11/17 08:37:52;;;;;;;9.32;6.55;;;6.30;99.90;;;;;;5111470;27;20427;-73
2022/11/17 08:40:18;;;;;;;9.15;6.70;;;6.30;99.90;;;;;;5092521;27;20425;-73
2022/11/17 08:42:44;;;;;;;8.50;6.77;;;6.30;99.90;;;;;;5108775;28;20416;-72
2022/11/17 08:45:11;;;;;;;9.18;6.90;;;6.30;99.90;;;;;;5097174;27;20412;-73
2022/11/17 08:47:36;;;;;;;10.45;6.65;;;6.30;99.90;;;;;;5106936;27;20423;-73
2022/11/17 08:50:04;;;;;;;9.70;6.60;;;6.30;99.90;;;;;;5128019;27;20418;-72
2022/11/17 08:52:30;;;;;;;9.93;7.30;;;6.30;99.90;;;;;;5129163;27;20780;-73
2022/11/17 08:54:56;;;;;;;8.55;6.28;;;6.30;99.90;;;;;;5126580;27;20467;-72
2022/11/17 08:57:22;;;;;;;9.88;7.18;;;6.30;99.90;;;;;;5128675;27;20483;-73
2022/11/17 08:59:47;;;;;;;9.43;7.00;;;6.40;99.90;;;;;;5129225;27;20418;-73
2022/11/17 09:02:13;;;;;;;10.57;8.43;;;6.30;99.90;;;;;;5129288;27;20844;-73
2022/11/17 09:04:39;;;;;;;11.07;7.63;;;6.30;99.90;;;;;;5130708;27;20868;-72
2022/11/17 09:07:05;;;;;;;10.93;7.23;;;6.30;99.90;;;;;;5124746;27;20974;-73
2022/11/17 09:09:30;;;;;;;11.07;7.47;;;6.30;99.90;;;;;;5115666;27;20493;-72
2022/11/17 09:11:57;;;;;;;10.15;7.30;;;6.30;99.90;;;;;;5101311;27;20415;-73
2022/11/17 09:14:23;;;;;;;9.87;7.63;;;6.30;99.90;;;;;;5127263;27;20438;-73
2022/11/17 09:16:48;;;;;;;11.00;8.03;;;6.30;99.90;;;;;;5116612;27;20465;-73
2022/11/17 09:19:15;;;;;;;10.43;8.02;;;6.30;99.90;;;;;;5118351;27;20444;-73
2022/11/17 09:21:41;;;;;;;12.27;9.20;;;6.30;99.90;;;;;;5129150;27;20402;-73
2022/11/17 09:24:06;;;;;;;11.18;8.55;;;6.30;99.90;;;;;;5123657;27;20983;-72
2022/11/17 09:26:32;;;;;;;11.18;8.90;;;6.30;99.90;;;;;;5098435;27;20409;-73
2022/11/17 09:29:02;;;;;;;11.32;8.57;;;6.30;99.90;;;;;;5124113;27;20396;-73
2022/11/17 09:31:28;;;;;;;10.18;7.72;;;6.30;99.90;;;;;;5125644;27;20445;-72
2022/11/17 09:33:54;;;;;;;9.20;7.40;;;6.30;99.90;;;;;;5118206;27;21282;-73
2022/11/17 09:36:20;;;;;;;10.13;7.17;;;6.30;99.90;;;;;;5121062;27;20989;-72
2022/11/17 09:38:46;;;;;;;11.25;8.27;;;6.30;99.90;;;;;;5099501;28;20487;-72
2022/11/17 09:41:15;;;;;;;12.27;7.90;;;6.30;99.90;;;;;;5124531;27;20753;-72
2022/11/17 09:44:07;;;;;;;10.93;7.32;;;6.30;99.90;;;;;;5107689;28;20418;-72
2022/11/17 09:46:50;;;;;;;9.43;6.55;;;6.30;99.90;;;;;;5126616;27;20916;-73
2022/11/17 09:49:50;;;;;;;11.35;7.57;;;6.20;99.90;;;;;;5119904;27;20396;-72
2022/11/17 09:52:40;;;;;;;10.80;7.17;;;6.20;99.90;;;;;;5125155;27;20919;-72
2022/11/17 09:55:23;;;;;;;10.75;7.85;;;6.20;99.90;;;;;;5128686;27;20419;-72
2022/11/17 09:57:55;;;;;;;9.88;7.35;;;6.20;99.90;;;;;;5099304;27;20475;-73
2022/11/17 10:00:22;;;;;;;10.52;7.13;;;6.20;99.90;;;;;;5129462;27;20399;-73
2022/11/17 10:02:50;;;;;;;12.17;7.80;;;6.20;99.90;;;;;;5100349;27;20426;-73
2022/11/17 10:05:26;;;;;;;9.77;6.63;;;6.20;99.90;;;;;;5109261;28;20404;-73
2022/11/17 10:07:55;;;;;;;9.23;7.45;;;6.20;99.90;;;;;;5128620;27;20804;-73
2022/11/17 10:10:49;;;;;;;10.60;7.47;;;6.20;99.90;;;;;;5107840;27;20952;-73
2022/11/17 10:13:22;;;;;;;10.57;7.57;;;6.20;99.90;;;;;;5100788;28;20424;-73
2022/11/17 10:15:54;;;;;;;10.65;7.57;;;6.20;99.90;;;;;;5122787;27;20459;-73
2022/11/17 10:18:19;;;;;;;11.57;7.75;;;6.20;99.90;;;;;;5098829;28;20434;-73
2022/11/17 10:20:45;;;;;;;9.20;7.28;;;6.20;99.90;;;;;;5102397;28;20424;-73
2022/11/17 10:23:17;;;;;;;10.80;6.88;;;6.20;99.90;;;;;;5128198;27;20766;-73
2022/11/17 10:25:45;;;;;;;10.45;6.78;;;6.20;99.90;;;;;;5108179;28;20984;-73
2022/11/17 10:28:28;;;;;;;9.43;6.20;;;6.20;99.90;;;;;;5124731;27;20430;-73
2022/11/17 10:31:02;;;;;;;8.07;6.17;;;6.20;99.90;;;;;;5087854;28;20423;-73
2022/11/17 10:33:43;;;;;;;8.07;5.95;;;6.20;99.90;;;;;;5126158;27;20530;-73
2022/11/17 10:36:29;;;;;;;10.13;7.13;;;6.30;99.90;;;;;;5115220;27;20471;-72
2022/11/17 10:38:58;;;;;;;11.18;7.70;;;6.30;99.90;;;;;;5127393;27;20796;-73
2022/11/17 10:41:39;;;;;;;11.18;8.48;;;6.30;99.90;;;;;;5128578;27;20422;-72
2022/11/17 10:44:20;;;;;;;10.82;7.13;;;6.30;99.90;;;;;;5107869;28;20420;-73
2022/11/17 10:47:00;;;;;;;9.93;7.78;;;6.30;99.90;;;;;;5127074;27;20473;-73
2022/11/17 10:49:29;;;;;;;10.15;7.13;;;6.30;99.90;;;;;;5116695;27;20446;-73
2022/11/17 10:52:05;;;;;;;9.25;6.95;;;6.20;99.90;;;;;;5106628;28;20410;-72
2022/11/17 10:54:31;;;;;;;9.65;7.35;;;6.20;99.90;;;;;;5096170;28;20446;-75
2022/11/17 10:56:59;;;;;;;11.48;8.63;;;6.20;99.90;;;;;;5109030;28;20420;-76
2022/11/17 10:59:28;;;;;;;12.10;8.60;;;6.10;99.90;;;;;;5112883;28;20426;-75
2022/11/17 11:01:54;;;;;;;12.50;9.32;;;6.10;99.90;;;;;;5112426;28;20426;-73
2022/11/17 11:04:39;;;;;;;12.63;9.20;;;6.10;99.90;;;;;;5124227;28;20424;-73
2022/11/17 11:07:18;;;;;;;13.38;9.18;;;6.10;99.90;;;;;;5095358;28;20434;-73
2022/11/17 11:10:05;;;;;;;13.65;10.18;;;6.10;99.90;;;;;;5116507;28;20501;-72
2022/11/17 11:12:49;;;;;;;14.27;11.10;;;6.10;99.90;;;;;;5090382;28;20477;-72
2022/11/17 11:15:21;;;;;;;12.38;9.85;;;6.10;99.90;;;;;;5110532;28;20826;-72
2022/11/17 11:17:47;;;;;;;12.23;9.30;;;6.20;99.90;;;;;;5117170;28;20438;-73
2022/11/17 11:20:14;;;;;;;13.13;9.07;;;6.20;99.90;;;;;;5099605;28;20404;-70
2022/11/17 11:22:56;;;;;;;13.88;10.32;;;6.20;99.90;;;;;;5125360;28;20425;-73
2022/11/17 11:25:43;;;;;;;12.10;8.85;;;6.30;99.90;;;;;;5107387;28;20414;-73
2022/11/17 11:28:28;;;;;;;11.00;8.63;;;6.30;99.90;;;;;;5103904;28;20418;-73
2022/11/17 11:31:19;;;;;;;14.10;10.30;;;6.30;99.90;;;;;;5084986;28;20424;-73
2022/11/17 11:33:52;;;;;;;12.77;9.85;;;6.30;99.90;;;;;;5122451;28;20494;-73
2022/11/17 11:36:25;;;;;;;11.80;8.65;;;6.30;99.90;;;;;;5092973;28;20457;-73
2022/11/17 11:39:18;;;;;;;11.40;8.43;;;6.20;99.90;;;;;;5101906;28;20432;-73
2022/11/17 11:42:21;;;;;;;11.50;8.85;;;6.20;99.90;;;;;;5107070;28;20433;-73
2022/11/17 11:45:01;;;;;;;11.50;9.27;;;6.20;99.90;;;;;;5124525;28;20515;-75
2022/11/17 11:47:56;;;;;;;11.90;8.77;;;6.20;99.90;;;;;;5114548;28;20412;-75
2022/11/17 11:50:24;;;;;;;11.32;8.80;;;6.20;99.90;;;;;;5091298;28;20435;-75
2022/11/17 11:52:57;;;;;;;10.45;8.68;;;6.20;99.90;;;;;;5109506;28;20490;-75
2022/11/17 11:55:29;;;;;;;11.02;8.00;;;6.20;99.90;;;;;;5104231;28;20764;-75
2022/11/17 11:58:06;;;;;;;11.70;9.20;;;6.20;99.90;;;;;;5105379;28;20462;-75
2022/11/17 12:00:32;;;;;;;12.18;8.95;;;6.20;99.90;;;;;;5104935;28;20506;-75
2022/11/17 12:03:15;;;;;;;11.95;9.02;;;6.20;99.90;;;;;;5127269;27;20433;-73
2022/11/17 12:05:52;;;;;;;9.88;8.02;;;6.20;99.90;;;;;;5131409;27;20784;-74
2022/11/17 12:08:37;;;;;;;10.05;8.38;;;6.30;99.90;;;;;;5110420;27;20417;-74
2022/11/17 12:14:06;;;;;;;10.52;7.97;;;6.30;99.90;;;;;;5125734;27;20419;-74
2022/11/17 12:16:35;;;;;;;10.27;8.20;;;6.40;99.90;;;;;;5111652;27;20892;-74
2022/11/17 12:19:01;;;;;;;10.50;8.20;;;6.30;99.90;;;;;;5124674;27;20422;-74
2022/11/17 12:21:28;;;;;;;12.23;9.02;;;6.30;99.90;;;;;;5129243;27;20463;-74
2022/11/17 12:24:16;;;;;;;11.27;8.77;;;6.30;99.90;;;;;;5121597;27;20395;-74
2022/11/17 12:26:42;;;;;;;11.32;8.90;;;6.40;99.90;;;;;;5128300;27;20418;-74
2022/11/17 12:29:20;;;;;;;11.40;8.13;;;6.40;99.90;;;;;;5128586;27;20399;-75
2022/11/17 12:31:55;;;;;;;11.95;9.13;;;6.40;99.90;;;;;;5122541;27;20846;-74
2022/11/17 12:34:32;;;;;;;12.95;10.52;;;6.40;99.90;;;;;;5127051;27;20486;-74
2022/11/17 12:37:16;;;;;;;13.00;10.10;;;6.40;99.90;;;;;;5109362;27;20934;-74
2022/11/17 12:40:03;;;;;;;14.02;10.52;;;6.40;99.90;;;;;;5106072;27;20410;-74
2022/11/17 12:42:33;;;;;;;13.80;11.13;;;6.40;99.90;;;;;;5129371;27;20453;-74
2022/11/17 12:45:04;;;;;;;13.30;9.68;;;6.40;99.90;;;;;;5129256;27;20415;-74
2022/11/17 12:47:37;;;;;;;12.27;9.50;;;6.40;99.90;;;;;;5108026;27;20577;-74
2022/11/17 12:50:17;;;;;;;13.25;8.98;;;6.40;99.90;;;;;;5128819;27;20469;-74
2022/11/17 12:52:42;;;;;;;11.35;8.63;;;6.40;99.90;;;;;;5128083;27;20857;-74
2022/11/17 12:55:16;;;;;;;11.40;8.57;;;6.40;99.90;;;;;;5123259;27;20449;-74
2022/11/17 12:57:44;;;;;;;9.70;7.43;;;6.40;99.90;;;;;;5105257;27;20430;-75
2022/11/17 13:00:24;;;;;;;12.68;8.20;;;6.40;99.90;;;;;;5124438;27;20920;-74
2022/11/17 13:03:09;;;;;;;10.10;7.57;;;6.40;99.90;;;;;;5108880;27;20426;-74
2022/11/17 13:05:35;;;;;;;10.07;7.70;;;6.40;99.90;;;;;;5092304;28;20408;-73
2022/11/17 13:08:27;;;;;;;9.02;7.55;;;6.50;99.90;;;;;;5097540;27;20448;-74
2022/11/17 13:11:03;;;;;;;9.02;7.43;;;6.40;99.90;;;;;;5111653;27;20425;-73
2022/11/17 13:13:29;;;;;;;10.10;7.50;;;6.50;99.90;;;;;;5122453;27;20418;-74
2022/11/17 13:15:57;;;;;;;8.48;6.78;;;6.50;99.90;;;;;;5122313;27;20502;-74
2022/11/17 13:18:31;;;;;;;8.70;6.72;;;6.50;99.90;;;;;;5082009;28;20436;-74
2022/11/17 13:20:58;;;;;;;8.52;6.78;;;6.50;99.90;;;;;;5127840;27;20411;-74
2022/11/17 13:23:26;;;;;;;9.02;6.75;;;6.50;99.90;;;;;;5120419;27;20432;-74
2022/11/17 13:26:36;;;;;;;10.65;7.07;;;6.50;99.90;;;;;;5130883;27;20482;-74
2022/11/17 13:29:10;;;;;;;9.10;6.80;;;6.50;99.90;;;;;;5026598;28;20419;-74
2022/11/17 13:31:35;;;;;;;8.73;6.80;;;6.50;99.90;;;;;;5027583;28;20450;-74
2022/11/17 13:34:12;;;;;;;8.37;6.33;;;6.50;99.90;;;;;;5052921;27;20543;-74